Time;durP1;ratioP1;P1;durP2;ratioP2;P2;SDS_P1;SDS_P2;PMS_P1;PMS_P2;Temp;Humidity;BMP_temperature;BMP_pressure;BME280_temperature;BME280_humidity;BME280_pressure;Samples;Min_cycle;Max_cycle;Signal;HPM_P1;HPM_P2
2022/11/11 00:00:37;;;;;;;22.63;10.60;;;;;;;14.32;100.00;102655.28;4986593;28;20261;-51
2022/11/11 00:03:21;;;;;;;21.50;10.63;;;;;;;14.24;100.00;102647.25;5005944;28;20292;-51
2022/11/11 00:06:09;;;;;;;22.43;10.73;;;;;;;14.48;100.00;102650.81;4987308;28;20291;-55
2022/11/11 00:08:54;;;;;;;26.03;11.47;;;;;;;14.91;100.00;102662.03;4989045;28;20298;-52
2022/11/11 00:11:38;;;;;;;24.10;11.30;;;;;;;14.77;100.00;102660.09;4988155;28;20264;-52
2022/11/11 00:14:22;;;;;;;21.93;11.30;;;;;;;14.59;100.00;102671.94;4992986;28;20272;-52
2022/11/11 00:26:26;;;;;;;26.33;12.10;;;;;;;15.58;100.00;102667.66;4992803;28;20406;-53
2022/11/11 00:29:10;;;;;;;26.87;13.33;;;;;;;14.47;100.00;102671.50;4993812;28;20330;-51
2022/11/11 00:38:07;;;;;;;31.60;16.03;;;;;;;14.64;100.00;102666.03;4990390;28;20267;-55
2022/11/11 00:40:52;;;;;;;33.27;16.70;;;;;;;14.41;100.00;102672.22;4989220;28;20272;-50
2022/11/11 00:43:35;;;;;;;32.43;17.23;;;;;;;14.44;100.00;102673.75;4992038;28;20300;-55
2022/11/11 00:52:26;;;;;;;29.33;16.97;;;;;;;14.44;100.00;102671.88;4987288;28;20276;-51
2022/11/11 00:55:12;;;;;;;35.43;16.70;;;;;;;14.45;100.00;102678.09;4990416;28;20265;-52
2022/11/11 00:57:56;;;;;;;38.87;19.53;;;;;;;14.71;100.00;102663.50;4989906;28;20259;-50
2022/11/11 01:00:42;;;;;;;36.60;18.70;;;;;;;14.53;100.00;102663.72;4990755;28;20300;-52
2022/11/11 01:03:26;;;;;;;38.97;20.07;;;;;;;14.64;100.00;102671.41;4992344;28;20268;-51
2022/11/11 01:06:12;;;;;;;41.67;23.60;;;;;;;14.59;100.00;102674.63;4988451;28;20353;-50
2022/11/11 01:08:57;;;;;;;42.83;23.17;;;;;;;14.60;100.00;102672.81;4991123;28;20302;-50
2022/11/11 01:11:41;;;;;;;41.30;22.37;;;;;;;14.65;100.00;102683.88;4989494;28;20295;-49
2022/11/11 01:14:25;;;;;;;39.23;19.40;;;;;;;14.51;100.00;102677.38;4991502;28;20294;-49
2022/11/11 01:17:09;;;;;;;43.17;21.47;;;;;;;14.98;100.00;102667.50;4989541;28;20339;-50
2022/11/11 01:19:53;;;;;;;38.67;20.37;;;;;;;14.58;100.00;102661.38;4993362;28;20291;-52
2022/11/11 01:22:37;;;;;;;41.07;19.83;;;;;;;14.27;100.00;102671.13;4991908;28;20276;-48
2022/11/11 01:25:22;;;;;;;38.80;19.37;;;;;;;14.65;100.00;102654.25;4991551;28;20267;-51
2022/11/11 01:28:07;;;;;;;44.50;20.07;;;;;;;14.30;100.00;102661.84;4992267;28;20291;-46
2022/11/11 01:30:52;;;;;;;52.03;24.13;;;;;;;14.37;100.00;102660.13;4991410;28;20268;-49
2022/11/11 01:33:36;;;;;;;38.67;21.07;;;;;;;14.34;100.00;102650.56;4992573;28;20292;-46
2022/11/11 01:36:24;;;;;;;47.43;19.07;;;;;;;14.29;100.00;102657.47;4988956;28;20324;-51
2022/11/11 01:39:08;;;;;;;39.55;21.50;;;;;;;14.45;100.00;102652.00;4991477;28;20268;-51
2022/11/11 01:41:52;;;;;;;42.23;21.33;;;;;;;14.49;100.00;102653.31;4991319;28;20125;-51
2022/11/11 01:44:42;;;;;;;37.97;20.07;;;;;;;14.47;100.00;102662.59;4986914;28;20259;-51
2022/11/11 01:49:17;;;;;;;40.00;21.07;;;;;;;14.55;100.00;102664.44;4989784;28;20292;-49
2022/11/11 01:50:31;;;;;;;40.30;20.73;;;;;;;14.49;100.00;102653.31;4990437;28;20616;-53
2022/11/11 01:53:15;;;;;;;38.93;19.87;;;;;;;14.55;100.00;102641.00;4989474;28;20295;-52
2022/11/11 01:56:01;;;;;;;37.20;19.63;;;;;;;14.87;100.00;102654.47;4991442;28;20256;-48
2022/11/11 01:58:45;;;;;;;39.40;17.90;;;;;;;15.11;100.00;102671.47;4986351;28;20271;-51
2022/11/11 02:01:31;;;;;;;40.87;19.83;;;;;;;14.90;100.00;102659.50;4989320;28;20264;-50
2022/11/11 02:07:22;;;;;;;36.37;17.37;;;;;;;14.60;100.00;102654.78;4988782;28;20370;-52
2022/11/11 02:10:08;;;;;;;39.60;19.17;;;;;;;14.54;100.00;102651.97;4988259;28;20271;-52
2022/11/11 02:15:55;;;;;;;43.67;19.07;;;;;;;14.37;100.00;102659.28;4986326;28;20256;-54
2022/11/11 02:18:41;;;;;;;43.53;20.50;;;;;;;14.67;100.00;102646.00;4989586;28;20271;-49
2022/11/11 02:21:43;;;;;;;39.07;19.87;;;;;;;14.43;100.00;102648.66;4990233;28;20355;-45
2022/11/11 02:24:29;;;;;;;45.27;20.80;;;;;;;14.46;100.00;102652.84;4992093;28;20264;-49
2022/11/11 02:27:17;;;;;;;36.80;19.30;;;;;;;14.44;100.00;102652.19;4990500;28;20292;-52
2022/11/11 02:30:04;;;;;;;35.57;18.93;;;;;;;14.74;100.00;102628.13;4990454;28;20275;-51
2022/11/11 02:32:51;;;;;;;40.60;19.88;;;;;;;14.46;100.00;102618.69;4990378;28;20345;-48
2022/11/11 02:35:39;;;;;;;36.67;21.07;;;;;;;14.37;100.00;102648.50;4990615;28;20092;-49
2022/11/11 02:38:24;;;;;;;38.23;19.93;;;;;;;14.47;100.00;102647.28;4990058;28;20272;-49
2022/11/11 02:44:12;;;;;;;39.90;20.37;;;;;;;14.53;100.00;102645.75;4991218;28;20252;-49
2022/11/11 02:46:57;;;;;;;36.13;17.27;;;;;;;14.67;100.00;102644.13;4989049;28;20315;-51
2022/11/11 02:49:42;;;;;;;42.37;17.60;;;;;;;14.55;100.00;102641.00;4991157;28;20259;-51
2022/11/11 02:52:26;;;;;;;38.67;16.90;;;;;;;14.31;100.00;102667.06;4988973;28;20311;-51
2022/11/11 02:55:10;;;;;;;35.00;17.33;;;;;;;14.34;100.00;102639.78;4991565;28;20303;-47
2022/11/11 02:57:54;;;;;;;38.00;19.10;;;;;;;14.54;100.00;102635.81;4989590;28;20283;-48
2022/11/11 03:00:40;;;;;;;45.70;21.33;;;;;;;14.78;100.00;102634.84;4986532;28;20272;-51
2022/11/11 03:03:24;;;;;;;39.07;19.07;;;;;;;14.33;100.00;102637.28;4985897;28;20264;-52
2022/11/11 03:06:08;;;;;;;40.30;21.40;;;;;;;14.45;100.00;102641.25;4987645;28;20284;-48
2022/11/11 03:08:52;;;;;;;41.70;20.63;;;;;;;14.44;100.00;102628.78;4987727;28;20268;-50
2022/11/11 03:11:37;;;;;;;45.97;19.53;;;;;;;14.70;100.00;102634.88;4989437;28;20275;-52
2022/11/11 03:14:21;;;;;;;38.63;18.70;;;;;;;14.64;100.00;102628.34;4987113;28;20345;-47
2022/11/11 03:23:16;;;;;;;37.10;18.67;;;;;;;14.37;100.00;102638.59;4990401;28;20256;-52
2022/11/11 03:26:00;;;;;;;45.00;20.90;;;;;;;14.47;100.00;102633.81;4991270;28;20291;-52
2022/11/11 03:28:44;;;;;;;40.90;19.70;;;;;;;14.42;100.00;102636.22;4987103;28;20326;-50
2022/11/11 03:31:28;;;;;;;35.30;18.27;;;;;;;14.34;100.00;102639.78;4987523;28;20260;-51
2022/11/11 03:34:18;;;;;;;41.47;18.00;;;;;;;14.45;100.00;102646.63;4988555;28;20264;-50
2022/11/11 03:40:11;;;;;;;41.95;17.75;;;;;;;14.20;100.00;102643.25;4987510;28;20731;-48
2022/11/11 03:42:56;;;;;;;33.07;16.17;;;;;;;14.30;100.00;102646.53;4986893;28;20042;-49
2022/11/11 03:45:41;;;;;;;32.87;16.47;;;;;;;14.46;100.00;102642.91;4987854;28;20295;-52
2022/11/11 03:48:28;;;;;;;33.00;17.20;;;;;;;14.67;100.00;102659.47;4990317;28;20271;-50
2022/11/11 03:51:13;;;;;;;36.70;18.35;;;;;;;14.82;100.00;102652.31;4988390;28;20287;-51
2022/11/11 03:53:58;;;;;;;34.87;16.90;;;;;;;14.38;100.00;102648.34;4990829;28;20073;-51
2022/11/11 03:56:42;;;;;;;35.70;16.57;;;;;;;14.56;100.00;102658.03;4986640;28;20321;-48
2022/11/11 03:59:26;;;;;;;28.80;14.53;;;;;;;14.26;100.00;102673.97;4990275;28;20255;-52
2022/11/11 04:11:41;;;;;;;45.20;18.23;;;;;;;14.18;100.00;102680.22;4993935;28;20343;-53
2022/11/11 04:17:28;;;;;;;32.07;16.67;;;;;;;14.33;100.00;102670.41;4990341;28;20264;-54
2022/11/11 04:23:16;;;;;;;36.50;15.27;;;;;;;14.41;100.00;102663.28;4993327;28;20256;-50
2022/11/11 04:26:00;;;;;;;35.47;14.37;;;;;;;14.31;100.00;102677.00;4992162;28;20660;-52
2022/11/11 04:34:53;;;;;;;33.00;13.03;;;;;;;14.56;100.00;102669.63;4989258;28;20268;-50
2022/11/11 04:37:45;;;;;;;28.42;12.65;;;;;;;14.52;100.00;102668.28;4989183;28;20414;-49
2022/11/11 04:45:26;;;;;;;31.80;15.20;;;;;;;14.24;100.00;102670.63;4988183;28;20356;-48
2022/11/11 04:46:41;;;;;;;38.03;16.10;;;;;;;14.15;100.00;102676.03;4989754;28;20297;-51
2022/11/11 04:49:25;;;;;;;36.13;14.57;;;;;;;14.03;100.00;102675.59;4991608;28;20283;-52
2022/11/11 04:58:18;;;;;;;30.70;14.33;;;;;;;14.20;100.00;102665.59;4989881;28;20288;-53
2022/11/11 05:01:02;;;;;;;26.50;13.10;;;;;;;14.32;100.00;102663.34;4988526;28;20299;-52
2022/11/11 05:03:47;;;;;;;31.07;13.63;;;;;;;14.27;100.00;102670.25;4990431;28;20290;-55
2022/11/11 05:09:34;;;;;;;29.90;13.50;;;;;;;13.94;100.00;102665.84;4985910;28;20271;-54
2022/11/11 05:12:19;;;;;;;28.63;13.00;;;;;;;13.73;100.00;102661.03;4990003;28;20300;-53
2022/11/11 05:21:20;;;;;;;26.70;13.20;;;;;;;13.80;100.00;102653.97;4990592;28;20295;-51
2022/11/11 05:27:10;;;;;;;27.13;13.33;;;;;;;14.18;100.00;102651.47;4971277;28;20360;-48
2022/11/11 05:29:54;;;;;;;30.87;14.73;;;;;;;13.88;100.00;102653.94;4991455;28;20332;-51
2022/11/11 05:32:39;;;;;;;35.80;14.47;;;;;;;13.84;100.00;102649.94;4988983;28;20352;-49
2022/11/11 05:35:23;;;;;;;34.83;13.97;;;;;;;13.69;100.00;102662.41;4989266;28;21022;-51
2022/11/11 05:38:21;;;;;;;28.60;13.97;;;;;;;13.67;100.00;102648.28;4987391;28;20489;-52
2022/11/11 05:41:07;;;;;;;27.17;12.30;;;;;;;13.64;100.00;102644.09;4991476;28;20323;-51
2022/11/11 05:43:51;;;;;;;29.27;15.03;;;;;;;13.37;100.00;102643.44;4987494;28;20268;-52
2022/11/11 05:46:35;;;;;;;32.50;14.27;;;;;;;13.41;100.00;102646.63;4989133;28;20300;-49
2022/11/11 05:49:20;;;;;;;29.40;13.93;;;;;;;13.23;100.00;102642.28;5000033;28;20300;-53
2022/11/11 05:52:05;;;;;;;28.43;13.47;;;;;;;13.14;100.00;102641.44;4988869;28;20280;-53
2022/11/11 05:54:50;;;;;;;35.10;13.90;;;;;;;13.32;100.00;102645.81;4989637;28;20283;-53
2022/11/11 05:57:34;;;;;;;32.07;14.60;;;;;;;13.31;100.00;102644.13;4991510;28;20267;-54
2022/11/11 06:00:18;;;;;;;32.30;13.80;;;;;;;13.12;100.00;102666.78;4989960;28;20302;-51
2022/11/11 06:03:07;;;;;;;33.60;14.80;;;;;;;12.99;100.00;102641.28;4987600;28;20272;-53
2022/11/11 06:05:52;;;;;;;32.23;14.27;;;;;;;13.26;100.00;102652.69;4986854;28;20306;-48
2022/11/11 06:08:36;;;;;;;40.00;14.93;;;;;;;13.45;100.00;102653.38;4987448;28;20356;-52
2022/11/11 06:11:20;;;;;;;26.73;13.83;;;;;;;13.48;100.00;102661.91;4988280;28;20267;-54
2022/11/11 06:14:05;;;;;;;30.13;14.00;;;;;;;13.80;100.00;102664.72;4988362;28;20365;-50
2022/11/11 06:16:49;;;;;;;30.17;14.80;;;;;;;14.46;100.00;102674.41;4990805;28;20322;-51
2022/11/11 06:19:34;;;;;;;36.40;14.50;;;;;;;13.77;100.00;102663.22;4989196;28;20263;-48
2022/11/11 06:22:54;;;;;;;39.90;16.03;;;;;;;13.70;100.00;102666.75;4989035;28;20265;-51
2022/11/11 06:28:28;;;;;;;41.87;16.27;;;;;;;13.54;100.00;102695.34;4992436;28;20272;-56
2022/11/11 06:31:15;;;;;;;36.37;15.30;;;;;;;13.61;100.00;102701.75;4992422;28;20352;-54
2022/11/11 06:34:00;;;;;;;39.30;15.90;;;;;;;13.47;100.00;102691.66;4989939;28;20295;-53
2022/11/11 06:36:44;;;;;;;36.80;13.77;;;;;;;13.33;100.00;102704.72;4990892;28;20038;-57
2022/11/11 06:39:28;;;;;;;29.20;14.93;;;;;;;13.57;100.00;102703.06;4990573;28;20283;-52
2022/11/11 06:42:13;;;;;;;39.13;13.67;;;;;;;13.38;100.00;102698.00;4987951;28;20272;-51
2022/11/11 06:44:58;;;;;;;47.20;15.60;;;;;;;13.56;100.00;102698.69;4989878;28;20271;-53
2022/11/11 06:47:43;;;;;;;34.03;14.57;;;;;;;13.55;100.00;102702.41;4986587;28;20398;-54
2022/11/11 06:50:28;;;;;;;32.27;14.80;;;;;;;13.62;100.00;102700.72;4992098;28;20346;-52
2022/11/11 06:53:15;;;;;;;29.27;14.00;;;;;;;13.83;100.00;102702.00;4990023;28;20287;-51
2022/11/11 06:56:00;;;;;;;35.17;15.37;;;;;;;15.19;100.00;102701.03;4988949;28;20271;-57
2022/11/11 06:58:44;;;;;;;42.27;15.73;;;;;;;14.16;100.00;102701.94;4988998;28;20354;-53
2022/11/11 07:01:28;;;;;;;35.00;14.17;;;;;;;13.83;100.00;102699.31;4991126;28;20310;-54
2022/11/11 07:04:13;;;;;;;31.77;14.03;;;;;;;13.37;100.00;102701.69;4991104;28;20295;-52
2022/11/11 07:06:58;;;;;;;34.67;15.43;;;;;;;13.29;100.00;102706.06;4989984;28;20284;-58
2022/11/11 07:09:43;;;;;;;29.30;15.47;;;;;;;13.41;100.00;102713.81;4987895;28;20276;-52
2022/11/11 07:12:29;;;;;;;37.40;14.47;;;;;;;14.42;100.00;102724.22;4987917;28;20256;-54
2022/11/11 07:15:14;;;;;;;33.23;16.00;;;;;;;13.55;100.00;102723.91;4985594;28;20264;-53
2022/11/11 07:17:59;;;;;;;31.60;14.17;;;;;;;13.57;100.00;102742.56;4986235;28;20248;-56
2022/11/11 07:20:44;;;;;;;32.23;15.03;;;;;;;13.24;100.00;102738.00;4986063;28;20268;-52
2022/11/11 07:23:29;;;;;;;30.63;14.50;;;;;;;13.65;100.00;102741.72;4991021;28;20268;-54
2022/11/11 07:26:13;;;;;;;36.30;14.87;;;;;;;13.76;100.00;102752.13;4988525;28;20322;-52
2022/11/11 07:28:57;;;;;;;33.90;15.97;;;;;;;13.59;100.00;102748.59;4988693;28;20350;-54
2022/11/11 07:31:41;;;;;;;30.93;13.60;;;;;;;13.45;100.00;102756.31;4989257;28;20290;-56
2022/11/11 07:34:27;;;;;;;31.83;15.30;;;;;;;13.87;100.00;102757.16;4981631;28;20287;-58
2022/11/11 07:37:12;;;;;;;30.43;13.50;;;;;;;15.29;100.00;102760.94;4990978;28;20252;-58
2022/11/11 07:39:57;;;;;;;38.47;14.87;;;;;;;13.56;100.00;102757.00;4993434;28;20268;-58
2022/11/11 07:42:42;;;;;;;36.53;14.00;;;;;;;13.56;100.00;102765.09;4992957;28;20287;-56
2022/11/11 07:45:26;;;;;;;30.60;12.90;;;;;;;13.30;100.00;102766.88;4993456;28;20287;-54
2022/11/11 07:48:10;;;;;;;34.10;14.43;;;;;;;13.54;100.00;102777.84;4990281;28;20260;-57
2022/11/11 07:50:55;;;;;;;30.80;14.90;;;;;;;13.48;100.00;102773.97;4987860;28;20268;-55
2022/11/11 07:53:40;;;;;;;32.83;15.00;;;;;;;13.54;100.00;102777.84;4991319;28;22440;-56
2022/11/11 07:56:24;;;;;;;28.97;13.97;;;;;;;13.95;100.00;102774.28;4990106;28;20283;-53
2022/11/11 07:59:09;;;;;;;33.53;14.60;;;;;;;13.74;100.00;102779.19;4992863;28;20269;-55
2022/11/11 08:01:54;;;;;;;34.50;14.77;;;;;;;13.58;100.00;102795.31;4991113;28;20286;-55
2022/11/11 08:04:39;;;;;;;32.60;14.60;;;;;;;13.71;100.00;102797.50;4994048;28;20325;-57
2022/11/11 08:07:24;;;;;;;28.80;14.00;;;;;;;13.51;100.00;102795.13;4989797;28;20279;-56
2022/11/11 08:10:10;;;;;;;34.80;14.33;;;;;;;13.42;100.00;102793.44;4991525;28;20276;-55
2022/11/11 08:15:58;;;;;;;23.93;13.30;;;;;;;14.24;100.00;102799.78;4991138;28;20268;-55
2022/11/11 08:18:42;;;;;;;30.40;13.50;;;;;;;14.10;100.00;102810.25;4991686;28;20268;-57
2022/11/11 08:21:27;;;;;;;28.80;13.73;;;;;;;13.85;100.00;102807.59;4991209;28;20355;-54
2022/11/11 08:24:11;;;;;;;27.93;14.00;;;;;;;14.02;100.00;102815.63;4991235;28;20299;-55
2022/11/11 08:26:55;;;;;;;28.37;13.80;;;;;;;13.49;100.00;102826.72;4993483;28;20307;-55
2022/11/11 08:29:39;;;;;;;28.30;15.33;;;;;;;13.87;100.00;102816.34;4994381;28;20300;-57
2022/11/11 08:32:24;;;;;;;36.27;15.57;;;;;;;13.84;100.00;102816.66;4991428;28;20263;-57
2022/11/11 08:35:09;;;;;;;29.27;14.60;;;;;;;13.86;100.00;102813.78;4990200;28;20303;-57
2022/11/11 08:37:53;;;;;;;27.17;12.43;;;;;;;13.98;100.00;102822.38;4990038;28;20268;-57
2022/11/11 08:40:38;;;;;;;25.50;13.00;;;;;;;14.13;100.00;102809.91;4991986;28;20292;-57
2022/11/11 08:43:25;;;;;;;27.07;11.97;;;;;;;15.77;100.00;102822.72;4992140;28;20998;-54
2022/11/11 08:46:10;;;;;;;27.17;13.60;;;;;;;14.69;100.00;102806.38;4990110;28;20861;-55
2022/11/11 08:48:54;;;;;;;32.90;12.83;;;;;;;14.26;100.00;102813.91;4988173;28;20268;-53
2022/11/11 08:51:38;;;;;;;30.00;13.17;;;;;;;14.50;100.00;102813.00;4986343;28;20382;-56
2022/11/11 08:54:23;;;;;;;24.70;11.50;;;;;;;14.82;100.00;102813.91;4991397;28;20260;-55
2022/11/11 08:57:07;;;;;;;25.93;12.20;;;;;;;14.41;100.00;102827.50;4988251;28;20307;-56
2022/11/11 08:59:51;;;;;;;25.13;11.30;;;;;;;15.13;100.00;102825.72;4988948;28;20264;-56
2022/11/11 09:02:36;;;;;;;22.20;10.70;;;;;;;15.27;100.00;102832.19;4998818;28;20279;-56
2022/11/11 09:05:21;;;;;;;19.67;10.27;;;;;;;16.14;100.00;102838.28;4989808;28;20268;-56
2022/11/11 09:08:07;;;;;;;23.47;10.00;;;;;;;16.01;100.00;102838.91;4999010;28;20292;-51
2022/11/11 09:10:51;;;;;;;31.70;10.63;;;;;;;16.49;100.00;102831.34;4989295;28;20337;-51
2022/11/11 09:13:36;;;;;;;15.60;9.20;;;;;;;16.91;100.00;102841.66;4988211;28;20268;-53
2022/11/11 09:16:19;;;;;;;18.50;8.27;;;;;;;16.51;100.00;102838.41;4992270;28;20306;-53
2022/11/11 09:19:04;;;;;;;15.10;9.00;;;;;;;16.89;100.00;102846.41;4988803;28;20268;-60
2022/11/11 09:21:50;;;;;;;19.10;9.50;;;;;;;17.31;100.00;102852.09;4991388;28;20291;-58
2022/11/11 09:24:35;;;;;;;;;;;;;;;17.41;100.00;102843.69;4987966;28;20272;-55
2022/11/11 09:27:20;;;;;;;17.17;8.50;;;;;;;17.80;100.00;102853.22;4989409;28;19929;-57
2022/11/11 09:30:05;;;;;;;14.93;8.10;;;;;;;18.19;100.00;102842.91;4989224;28;20333;-58
2022/11/11 09:32:51;;;;;;;17.33;7.83;;;;;;;18.16;100.00;102857.69;4989174;28;20264;-57
2022/11/11 09:35:35;;;;;;;12.93;7.07;;;;;;;18.31;100.00;102854.84;4988057;28;20288;-57
2022/11/11 09:38:19;;;;;;;16.97;9.00;;;;;;;18.09;100.00;102850.53;4990977;28;20264;-57
2022/11/11 09:41:23;;;;;;;12.77;7.23;;;;;;;18.60;100.00;102846.69;4991463;28;20053;-56
2022/11/11 09:44:19;;;;;;;11.33;7.33;;;;;;;18.60;100.00;102855.66;4986086;28;20073;-56
2022/11/11 09:47:15;;;;;;;18.40;8.13;;;;;;;18.74;100.00;102853.88;4991545;28;20045;-54
2022/11/11 09:50:12;;;;;;;16.80;7.67;;;;;;;18.11;100.00;102870.97;4991448;28;20058;-56
2022/11/11 09:53:10;;;;;;;22.10;7.60;;;;;;;18.20;100.00;102861.66;4990833;28;20072;-58
2022/11/11 09:56:14;;;;;;;13.30;7.47;;;;;;;18.91;100.00;102864.34;4987302;28;20046;-58
2022/11/11 09:59:07;;;;;;;12.47;7.30;;;;;;;19.13;100.00;102867.81;4988803;28;20064;-58
2022/11/11 10:01:55;;;;;;;14.67;8.23;;;;;;;18.44;100.00;102864.94;4991837;28;20076;-59
2022/11/11 10:04:54;;;;;;;16.23;7.73;;;;;;;18.94;100.00;102868.53;4991817;28;20045;-55
2022/11/11 10:07:50;;;;;;;15.43;7.83;;;;;;;19.23;100.00;102864.72;4984939;28;20043;-57
2022/11/11 10:10:52;;;;;;;17.50;7.53;;;;;;;18.76;100.00;102868.03;4990476;28;20590;-58
2022/11/11 10:13:37;;;;;;;15.43;8.23;;;;;;;18.13;100.00;102858.06;4986970;28;20041;-59
2022/11/11 10:16:27;;;;;;;12.97;7.47;;;;;;;18.58;100.00;102862.31;4990571;28;20038;-56
2022/11/11 10:19:15;;;;;;;16.57;7.83;;;;;;;18.54;100.00;102867.28;4991685;28;20049;-60
2022/11/11 10:22:04;;;;;;;14.63;7.60;;;;;;;18.35;100.00;102863.44;4991078;28;20041;-59
2022/11/11 10:25:02;;;;;;;15.20;8.07;;;;;;;18.13;100.00;102874.31;4989244;28;20057;-57
2022/11/11 10:27:51;;;;;;;13.88;7.55;;;;;;;17.99;100.00;102867.09;4992470;28;20069;-54
2022/11/11 10:30:35;;;;;;;19.30;8.77;;;;;;;18.99;100.00;102875.06;4987041;28;20049;-59
2022/11/11 10:33:26;;;;;;;12.17;7.07;;;;;;;19.85;100.00;102885.47;4988656;28;20100;-57
2022/11/11 10:36:17;;;;;;;22.13;7.90;;;;;;;19.29;100.00;102880.16;4988644;28;20043;-55
2022/11/11 10:39:03;;;;;;;15.20;7.57;;;;;;;18.94;100.00;102891.06;4985154;28;20042;-59
2022/11/11 10:41:50;;;;;;;17.05;7.90;;;;;;;19.20;100.00;102886.81;4984256;28;20041;-55
2022/11/11 10:44:35;;;;;;;14.20;6.63;;;;;;;19.15;100.00;102892.84;4990178;28;20046;-57
2022/11/11 10:47:38;;;;;;;14.63;7.37;;;;;;;19.13;100.00;102885.94;4986681;28;20121;-59
2022/11/11 10:50:30;;;;;;;13.57;7.10;;;;;;;19.15;100.00;102892.03;4989385;28;20062;-59
2022/11/11 10:53:21;;;;;;;17.63;7.63;;;;;;;19.82;100.00;102880.47;4989133;28;20072;-56
2022/11/11 10:56:18;;;;;;;15.40;7.10;;;;;;;20.31;100.00;102878.38;4990041;28;20049;-56
2022/11/11 10:59:19;;;;;;;11.93;6.68;;;;;;;19.70;100.00;102872.09;4988477;28;20085;-55
2022/11/11 11:02:28;;;;;;;11.87;7.20;;;;;;;20.30;100.00;102903.88;5004035;28;20089;-56
2022/11/11 11:05:26;;;;;;;18.53;7.00;;;;;;;19.85;100.00;102885.47;4989795;28;20069;-58
2022/11/11 11:08:23;;;;;;;12.37;7.43;;;;;;;19.59;100.00;102887.94;4989549;28;20050;-59
2022/11/11 11:11:29;;;;;;;10.93;7.22;;;;;;;19.91;100.00;102890.09;4989895;28;20104;-59
2022/11/11 11:14:35;;;;;;;12.77;7.20;;;;;;;20.49;100.00;102886.69;4988716;28;20088;-56
2022/11/11 11:17:34;;;;;;;13.17;6.87;;;;;;;20.37;100.00;102882.13;4990199;28;20042;-58
2022/11/11 11:20:19;;;;;;;14.30;6.80;;;;;;;20.11;100.00;102890.09;4988752;28;20064;-57
2022/11/11 11:23:03;;;;;;;13.83;7.03;;;;;;;19.84;100.00;102879.22;4987218;28;20057;-58
2022/11/11 11:25:56;;;;;;;12.60;7.20;;;;;;;19.43;100.00;102874.78;4988261;28;20073;-59
2022/11/11 11:28:56;;;;;;;14.77;7.80;;;;;;;19.60;100.00;102881.47;4987263;28;20107;-61
2022/11/11 11:31:41;;;;;;;20.27;7.63;;;;;;;19.92;100.00;102879.03;4985581;28;20046;-56
2022/11/11 11:34:43;;;;;;;12.33;7.53;;;;;;;19.59;100.00;102876.25;4987204;28;20073;-58
2022/11/11 11:37:27;;;;;;;15.70;8.17;;;;;;;19.75;100.00;102869.59;4988747;28;20103;-53
2022/11/11 11:40:12;;;;;;;14.63;7.17;;;;;;;19.32;100.00;102865.34;4990878;28;20117;-58
2022/11/11 11:42:56;;;;;;;14.70;7.00;;;;;;;19.58;100.00;102871.88;4986623;28;20066;-53
2022/11/11 11:45:40;;;;;;;16.70;7.97;;;;;;;19.29;100.00;102869.31;4987631;28;20101;-56
2022/11/11 11:48:47;;;;;;;12.93;7.07;;;;;;;19.77;100.00;102862.06;4987988;28;20045;-56
2022/11/11 11:52:06;;;;;;;14.10;7.43;;;;;;;19.86;100.00;102866.28;4986240;28;20045;-57
2022/11/11 11:55:13;;;;;;;14.77;7.10;;;;;;;20.85;100.00;102864.66;4986868;28;20049;-53
2022/11/11 11:58:24;;;;;;;16.57;7.07;;;;;;;20.98;100.00;102867.31;4989887;28;20080;-55
2022/11/11 12:01:20;;;;;;;20.17;6.90;;;;;;;21.44;100.00;102870.81;4989008;28;20042;-58
2022/11/11 12:04:16;;;;;;;13.10;6.60;;;;;;;21.58;100.00;102877.00;4988711;28;20050;-54
2022/11/11 12:07:28;;;;;;;10.40;6.00;;;;;;;21.51;100.00;102865.34;4988457;28;20091;-57
2022/11/11 12:10:31;;;;;;;15.23;7.20;;;;;;;21.43;100.00;102858.28;4986281;28;20062;-57
2022/11/11 12:14:03;;;;;;;13.97;7.00;;;;;;;21.17;100.00;102865.56;4989994;28;20061;-62
2022/11/11 12:17:06;;;;;;;13.40;6.77;;;;;;;21.30;100.00;102864.63;4988269;28;20172;-58
2022/11/11 12:20:03;;;;;;;16.13;7.20;;;;;;;21.35;100.00;102851.22;4987578;28;20093;-56
2022/11/11 12:22:59;;;;;;;10.60;5.93;;;;;;;21.25;100.00;102866.34;4986153;28;20157;-58
2022/11/11 12:26:06;;;;;;;11.83;6.87;;;;;;;21.12;100.00;102862.66;4990508;28;20045;-58
2022/11/11 12:29:06;;;;;;;13.55;7.45;;;;;;;21.46;100.00;102854.28;4988806;28;20065;-56
2022/11/11 12:32:28;;;;;;;11.67;6.70;;;;;;;21.72;100.00;102850.53;4990543;28;20068;-55
2022/11/11 12:35:31;;;;;;;15.97;7.40;;;;;;;20.86;100.00;102848.13;4989675;28;20107;-59
2022/11/11 12:38:42;;;;;;;13.87;6.27;;;;;;;21.33;100.00;102842.44;4987476;28;20043;-55
2022/11/11 12:41:55;;;;;;;11.87;7.03;;;;;;;21.25;100.00;102829.09;4991202;28;20065;-56
2022/11/11 12:44:56;;;;;;;19.70;7.03;;;;;;;21.96;97.68;102828.97;4990869;28;20081;-56
2022/11/11 12:48:05;;;;;;;11.57;5.43;;;;;;;21.92;96.98;102834.06;5014124;28;20053;-56
2022/11/11 12:51:24;;;;;;;14.07;6.27;;;;;;;21.23;97.77;102831.22;4990156;28;20049;-57
2022/11/11 12:54:19;;;;;;;11.60;5.75;;;;;;;21.11;100.00;102832.94;4951957;29;20047;-53
2022/11/11 12:57:14;;;;;;;14.20;5.73;;;;;;;20.91;100.00;102832.00;4953197;29;20173;-59
2022/11/11 13:00:17;;;;;;;11.20;5.47;;;;;;;21.12;100.00;102834.59;4949633;29;20054;-56
2022/11/11 13:03:26;;;;;;;12.50;6.60;;;;;;;21.51;98.51;102829.97;4951386;29;20043;-57
2022/11/11 13:06:19;;;;;;;10.47;5.53;;;;;;;22.23;92.38;102836.88;4953042;29;20054;-55
2022/11/11 13:09:22;;;;;;;13.47;5.97;;;;;;;21.97;93.03;102836.09;4951558;29;20042;-57
2022/11/11 13:12:29;;;;;;;14.53;5.70;;;;;;;22.49;88.33;102846.69;4949752;29;20043;-59
2022/11/11 13:15:17;;;;;;;12.43;5.70;;;;;;;22.73;88.26;102830.47;4953092;29;20051;-58
2022/11/11 13:18:11;;;;;;;10.13;5.87;;;;;;;21.74;93.99;102832.09;4947608;29;20046;-55
2022/11/11 13:21:01;;;;;;;16.73;5.93;;;;;;;22.24;91.90;102829.53;4952700;29;20046;-54
2022/11/11 13:23:46;;;;;;;8.03;5.03;;;;;;;21.81;92.54;102832.03;4948893;29;20051;-54
2022/11/11 13:26:38;;;;;;;11.13;5.93;;;;;;;21.96;93.04;102828.97;4949406;29;20051;-55
2022/11/11 13:29:48;;;;;;;8.27;5.17;;;;;;;22.42;89.55;102829.56;4950234;29;20042;-54
2022/11/11 13:32:43;;;;;;;12.07;4.83;;;;;;;22.87;86.47;102827.56;4949831;29;20050;-56
2022/11/11 13:35:39;;;;;;;12.93;5.07;;;;;;;22.68;86.16;102824.88;4950459;29;20046;-55
2022/11/11 13:38:31;;;;;;;13.40;5.20;;;;;;;22.01;89.51;102828.31;4950828;29;20042;-58
2022/11/11 13:41:23;;;;;;;11.30;5.53;;;;;;;22.67;88.03;102825.94;4951473;29;20074;-57
2022/11/11 13:44:08;;;;;;;13.40;5.07;;;;;;;21.54;91.71;102826.78;4950859;29;20150;-59
2022/11/11 13:47:00;;;;;;;12.83;4.97;;;;;;;21.90;91.96;102825.25;4952570;29;20073;-58
2022/11/11 13:50:00;;;;;;;13.03;4.77;;;;;;;21.37;92.56;102831.09;4951449;29;20097;-56
2022/11/11 13:52:57;;;;;;;12.47;5.00;;;;;;;22.56;87.31;102832.13;4972191;28;20066;-56
2022/11/11 13:55:46;;;;;;;17.53;8.10;;;;;;;23.17;83.93;102840.38;4988682;28;20100;-57
2022/11/11 13:58:34;;;;;;;10.90;4.73;;;;;;;21.87;88.61;102846.66;4990962;28;20041;-56
2022/11/11 14:01:19;;;;;;;11.20;4.90;;;;;;;22.31;87.86;102822.97;4987510;28;20069;-52
2022/11/11 14:04:06;;;;;;;11.43;5.37;;;;;;;22.39;88.93;102827.28;4985142;28;20053;-56
2022/11/11 14:06:52;;;;;;;12.70;4.57;;;;;;;21.92;92.68;102831.34;4989065;28;20042;-56
2022/11/11 14:09:57;;;;;;;9.37;4.60;;;;;;;21.69;94.31;102828.41;4985855;28;20111;-53
2022/11/11 14:12:45;;;;;;;12.50;4.07;;;;;;;21.32;96.92;102824.44;4989049;28;20077;-55